Terminal Aerodrome Forecast
Issued by NWS

Home | Current Version | Previous Version | Text Only | Print | Product List | Glossary Off
Versions: 1 2 3 4 5 6 7 8 9 10 11 12 13 14 15 16 17 18 19 20 21 22 23 24 25 26

000
FTUS43 KGRB 191726
TAFRHI
TAF
KRHI 191726Z 1918/2018 20004KT 1SM BR BKN003
     FM192300 VRB03KT 1/4SM FG BKN003
     FM201000 VRB03KT 3/4SM -PLFZRA BR OVC003
     FM201600 VRB03KT 1 1/2SM -RASNPL BR OVC007
     FM201700 12003KT 2SM -RASNPL BR OVC007=

USA.gov is the U.S. government's official web portal to all federal, state and local government web resources and services.